地図

経路データ

SID SEASON NUMBER BASIN SUBBASIN NAME ISO_TIME NATURE LAT LON WMO_WIND WMO_PRES WMO_AGENCY TRACK_TYPE DIST2LAND LANDFALL IFLAG USA_AGENCY USA_ATCF_ID USA_LAT USA_LON USA_RECORD USA_STATUS USA_WIND USA_PRES USA_SSHS USA_R34_NE USA_R34_SE USA_R34_SW USA_R34_NW USA_R50_NE USA_R50_SE USA_R50_SW USA_R50_NW USA_R64_NE USA_R64_SE USA_R64_SW USA_R64_NW USA_POCI USA_ROCI USA_RMW USA_EYE TOKYO_LAT TOKYO_LON TOKYO_GRADE TOKYO_WIND TOKYO_PRES TOKYO_R50_DIR TOKYO_R50_LONG TOKYO_R50_SHORT TOKYO_R30_DIR TOKYO_R30_LONG TOKYO_R30_SHORT TOKYO_LAND CMA_LAT CMA_LON CMA_CAT CMA_WIND CMA_PRES HKO_LAT HKO_LON HKO_CAT HKO_WIND HKO_PRES NEWDELHI_LAT NEWDELHI_LON NEWDELHI_GRADE NEWDELHI_WIND NEWDELHI_PRES NEWDELHI_CI NEWDELHI_DP NEWDELHI_POCI REUNION_LAT REUNION_LON REUNION_TYPE REUNION_WIND REUNION_PRES REUNION_TNUM REUNION_CI REUNION_RMW REUNION_R34_NE REUNION_R34_SE REUNION_R34_SW REUNION_R34_NW REUNION_R50_NE REUNION_R50_SE REUNION_R50_SW REUNION_R50_NW REUNION_R64_NE REUNION_R64_SE REUNION_R64_SW REUNION_R64_NW BOM_LAT BOM_LON BOM_TYPE BOM_WIND BOM_PRES BOM_TNUM BOM_CI BOM_RMW BOM_R34_NE BOM_R34_SE BOM_R34_SW BOM_R34_NW BOM_R50_NE BOM_R50_SE BOM_R50_SW BOM_R50_NW BOM_R64_NE BOM_R64_SE BOM_R64_SW BOM_R64_NW BOM_ROCI BOM_POCI BOM_EYE BOM_POS_METHOD BOM_PRES_METHOD NADI_LAT NADI_LON NADI_CAT NADI_WIND NADI_PRES WELLINGTON_LAT WELLINGTON_LON WELLINGTON_WIND WELLINGTON_PRES DS824_LAT DS824_LON DS824_STAGE DS824_WIND DS824_PRES TD9636_LAT TD9636_LON TD9636_STAGE TD9636_WIND TD9636_PRES TD9635_LAT TD9635_LON TD9635_WIND TD9635_PRES TD9635_ROCI NEUMANN_LAT NEUMANN_LON NEUMANN_CLASS NEUMANN_WIND NEUMANN_PRES MLC_LAT MLC_LON MLC_CLASS MLC_WIND MLC_PRES USA_GUST BOM_GUST BOM_GUST_PER REUNION_GUST REUNION_GUST_PER USA_SEAHGT USA_SEARAD_NE USA_SEARAD_SE USA_SEARAD_SW USA_SEARAD_NW STORM_SPEED STORM_DIR
1876268N12300 1876 20 NA CS NOT_NAMED 1876-09-24 06:00:00 TS 11.5000 -60.2000 spur-merge 125 117 _____________O -1 11.5000 -60.2000 TS 45 8 302
1876268N12300 1876 20 NA CS NOT_NAMED 1876-09-24 09:00:00 TS 11.7101 -60.5474 spur-merge 124 120 _____________P -1 11.7101 -60.5474 TS 45 8 300
1876268N12300 1876 20 NA CS NOT_NAMED 1876-09-24 12:00:00 TS 11.9000 -60.9000 spur-merge 134 134 _____________O -1 11.9000 -60.9000 TS 45 8 297
1876268N12300 1876 20 NA CS NOT_NAMED 1876-09-24 15:00:00 TS 12.0700 -61.2576 spur-merge 156 156 _____________P -1 12.0700 -61.2576 TS 45 8 300
1876268N12300 1876 20 NA CS NOT_NAMED 1876-09-24 18:00:00 TS 12.3000 -61.6000 spur-merge 179 179 _____________O -1 12.3000 -61.6000 TS 45 1002 9 313
1876268N12300 1876 20 NA CS NOT_NAMED 1876-09-24 21:00:00 TS 12.6699 -61.9075 spur-merge 225 225 _____________P -1 12.6699 -61.9075 TS 45 10 324
1876268N12300 1876 20 NA CS NOT_NAMED 1876-09-25 00:00:00 TS 13.1000 -62.2000 spur-merge 268 268 _____________O -1 13.1000 -62.2000 TS 45 10 325
1876268N12300 1876 20 NA CS NOT_NAMED 1876-09-25 03:00:00 TS 13.5000 -62.5001 spur-merge 313 313 _____________P -1 13.5000 -62.5001 TS 45 10 324
1876268N12300 1876 20 NA CS NOT_NAMED 1876-09-25 06:00:00 TS 13.9000 -62.8000 spur-merge 358 358 _____________O -1 13.9000 -62.8000 TS 45 10 324
1876268N12300 1876 20 NA CS NOT_NAMED 1876-09-25 09:00:00 TS 14.3000 -63.1001 spur-merge 403 403 _____________P -1 14.3000 -63.1001 TS 45 10 324
1876268N12300 1876 20 NA CS NOT_NAMED 1876-09-25 12:00:00 TS 14.7000 -63.4000 spur-merge 449 394 _____________O -1 14.7000 -63.4000 TS 45 10 325
1876268N12300 1876 20 NA CS NOT_NAMED 1876-09-25 15:00:00 TS 15.1525 -63.7074 spur-merge 385 339 _____________P -1 15.1525 -63.7074 TS 45 10 324
1876268N12300 1876 20 NA CS NOT_NAMED 1876-09-25 18:00:00 TS 15.5000 -64.0000 spur-merge 339 318 _____________O -1 15.5000 -64.0000 TS 45 7 311
1876268N12300 1876 20 NA CS NOT_NAMED 1876-09-25 21:00:00 TS 15.6099 -64.2577 spur-merge 312 302 _____________P -1 15.6099 -64.2577 TS 45 5 282
1876268N12300 1876 20 NA CS NOT_NAMED 1876-09-26 00:00:00 TS 15.6000 -64.5000 spur-merge 302 293 _____________O -1 15.6000 -64.5000 TS 45 5 269
1876268N12300 1876 20 NA CS NOT_NAMED 1876-09-26 03:00:00 TS 15.6000 -64.7501 spur-merge 288 281 _____________P -1 15.6000 -64.7501 TS 45 5 270
1876268N12300 1876 20 NA CS NOT_NAMED 1876-09-26 06:00:00 TS 15.6000 -65.0000 spur-merge 281 276 _____________O -1 15.6000 -65.0000 TS 45 5 276
1876268N12300 1876 20 NA CS NOT_NAMED 1876-09-26 09:00:00 TS 15.6500 -65.2500 spur-merge 276 257 _____________P -1 15.6500 -65.2500 TS 45 5 282
1876268N12300 1876 20 NA CS NOT_NAMED 1876-09-26 12:00:00 TS 15.7000 -65.5000 spur-merge 257 251 _____________O -1 15.7000 -65.5000 TS 45 5 278
1876268N12300 1876 20 NA CS NOT_NAMED 1876-09-26 15:00:00 TS 15.7150 -65.7500 spur-merge 251 247 _____________P -1 15.7150 -65.7500 TS 45 5 270
1876268N12300 1876 20 NA CS NOT_NAMED 1876-09-26 18:00:00 TS 15.7000 -66.0000 spur-merge 247 246 _____________O -1 15.7000 -66.0000 TS 45 5 262
1876268N12300 1876 20 NA CS NOT_NAMED 1876-09-26 21:00:00 TS 15.6500 -66.2575 spur-merge 246 257 _____________P -1 15.6500 -66.2575 TS 45 5 258
1876268N12300 1876 20 NA CS NOT_NAMED 1876-09-27 00:00:00 TS 15.6000 -66.5000 spur-merge 259 258 _____________O -1 15.6000 -66.5000 TS 45 4 263
1876268N12300 1876 20 NA CS NOT_NAMED 1876-09-27 03:00:00 TS 15.5999 -66.7000 spur-merge 258 257 _____________P -1 15.5999 -66.7000 TS 45 4 270
1876268N12300 1876 20 NA CS NOT_NAMED 1876-09-27 06:00:00 TS 15.6000 -66.9000 spur-merge 257 257 _____________O -1 15.6000 -66.9000 TS 45 4 263
1876268N12300 1876 20 NA CS NOT_NAMED 1876-09-27 09:00:00 TS 15.5500 -67.1500 spur-merge 257 257 _____________P -1 15.5500 -67.1500 TS 45 5 258
1876268N12300 1876 20 NA CS NOT_NAMED 1876-09-27 12:00:00 TS 15.5000 -67.4000 spur-merge 269 269 _____________O -1 15.5000 -67.4000 TS 45 4 263
1876268N12300 1876 20 NA CS NOT_NAMED 1876-09-27 15:00:00 TS 15.4999 -67.5924 spur-merge 271 271 _____________P -1 15.4999 -67.5924 TS 45 4 270
1876268N12300 1876 20 NA CS NOT_NAMED 1876-09-27 18:00:00 TS 15.5000 -67.8000 spur-merge 276 276 _____________O -1 15.5000 -67.8000 TS 45 5 264
1876268N12300 1876 20 NA CS NOT_NAMED 1876-09-27 21:00:00 TS 15.4500 -68.0851 spur-merge 285 285 _____________P -1 15.4500 -68.0851 TS 45 6 260
1876268N12300 1876 20 NA CS NOT_NAMED 1876-09-28 00:00:00 TS 15.4000 -68.4000 spur-merge 307 307 _____________O -1 15.4000 -68.4000 TS 45 6 265
1876268N12300 1876 20 NA CS NOT_NAMED 1876-09-28 03:00:00 TS 15.4000 -68.6999 spur-merge 313 313 _____________P -1 15.4000 -68.6999 TS 47 6 270
1876268N12300 1876 20 NA CS NOT_NAMED 1876-09-28 06:00:00 TS 15.4000 -69.0000 spur-merge 314 314 _____________O -1 15.4000 -69.0000 TS 50 6 265
1876268N12300 1876 20 NA CS NOT_NAMED 1876-09-28 09:00:00 TS 15.3500 -69.3000 spur-merge 328 321 _____________P -1 15.3500 -69.3000 TS 50 6 260
1876268N12300 1876 20 NA CS NOT_NAMED 1876-09-28 12:00:00 TS 15.3000 -69.6000 spur-merge 321 303 _____________O -1 15.3000 -69.6000 TS 50 6 265
1876268N12300 1876 20 NA CS NOT_NAMED 1876-09-28 15:00:00 TS 15.3000 -69.8999 spur-merge 303 287 _____________P -1 15.3000 -69.8999 TS 50 6 270
1876268N12300 1876 20 NA CS NOT_NAMED 1876-09-28 18:00:00 TS 15.3000 -70.2000 spur-merge 287 274 _____________O -1 15.3000 -70.2000 TS 50 6 266
1876268N12300 1876 20 NA CS NOT_NAMED 1876-09-28 21:00:00 TS 15.2575 -70.5000 spur-merge 274 274 _____________P -1 15.2575 -70.5000 TS 50 6 260
1876268N12300 1876 20 NA CS NOT_NAMED 1876-09-29 00:00:00 TS 15.2000 -70.8000 spur-merge 276 270 _____________O -1 15.2000 -70.8000 TS 50 6 259
1876268N12300 1876 20 NA CS NOT_NAMED 1876-09-29 03:00:00 TS 15.1500 -71.1000 spur-merge 281 279 _____________P -1 15.1500 -71.1000 TS 52 6 260
1876268N12300 1876 20 NA CS NOT_NAMED 1876-09-29 06:00:00 TS 15.1000 -71.4000 spur-merge 279 279 _____________O -1 15.1000 -71.4000 TS 55 6 260
1876268N12300 1876 20 NA CS NOT_NAMED 1876-09-29 09:00:00 TS 15.0425 -71.7075 spur-merge 291 291 _____________P -1 15.0425 -71.7075 TS 55 6 260
1876268N12300 1876 20 NA CS NOT_NAMED 1876-09-29 12:00:00 TS 15.0000 -72.0000 spur-merge 292 292 _____________O -1 15.0000 -72.0000 TS 55 5 265
1876268N12300 1876 20 NA CS NOT_NAMED 1876-09-29 15:00:00 TS 14.9999 -72.2424 spur-merge 296 296 _____________P -1 14.9999 -72.2424 TS 55 5 270
1876268N12300 1876 20 NA CS NOT_NAMED 1876-09-29 18:00:00 TS 15.0000 -72.5000 spur-merge 303 303 _____________O -1 15.0000 -72.5000 TS 55 6 266
1876268N12300 1876 20 NA CS NOT_NAMED 1876-09-29 21:00:00 TS 14.9575 -72.8425 spur-merge 314 306 _____________P -1 14.9575 -72.8425 TS 55 7 262
1876268N12300 1876 20 NA CS NOT_NAMED 1876-09-30 00:00:00 TS 14.9000 -73.2000 spur-merge 318 318 _____________O -1 14.9000 -73.2000 TS 55 7 260
1876268N12300 1876 20 NA CS NOT_NAMED 1876-09-30 03:00:00 TS 14.8499 -73.5075 spur-merge 323 323 _____________P -1 14.8499 -73.5075 TS 55 6 260
1876268N12300 1876 20 NA CS NOT_NAMED 1876-09-30 06:00:00 TS 14.8000 -73.8000 spur-merge 338 338 _____________O -1 14.8000 -73.8000 TS 55 6 260
1876268N12300 1876 20 NA CS NOT_NAMED 1876-09-30 09:00:00 TS 14.7500 -74.1000 spur-merge 347 347 _____________P -1 14.7500 -74.1000 TS 55 6 260
1876268N12300 1876 20 NA CS NOT_NAMED 1876-09-30 12:00:00 TS 14.7000 -74.4000 spur-merge 367 367 _____________O -1 14.7000 -74.4000 TS 55 6 262
1876268N12300 1876 20 NA CS NOT_NAMED 1876-09-30 15:00:00 TS 14.6649 -74.6924 spur-merge 379 379 _____________P -1 14.6649 -74.6924 TS 57 6 260
1876268N12300 1876 20 NA CS NOT_NAMED 1876-09-30 18:00:00 TS 14.6000 -75.0000 spur-merge 390 382 _____________O -1 14.6000 -75.0000 TS 60 7 252
1876268N12300 1876 20 NA CS NOT_NAMED 1876-09-30 21:00:00 TS 14.4575 -75.3426 spur-merge 388 377 _____________P -1 14.4575 -75.3426 TS 65 7 246
1876268N12300 1876 20 NA CS NOT_NAMED 1876-10-01 00:00:00 TS 14.3000 -75.7000 spur-merge 379 374 _____________O -1 14.3000 -75.7000 HU 70 7 249
1876268N12300 1876 20 NA CS NOT_NAMED 1876-10-01 03:00:00 TS 14.1924 -76.0499 spur-merge 377 374 _____________P -1 14.1924 -76.0499 HU 72 7 254
1876268N12300 1876 20 NA CS NOT_NAMED 1876-10-01 06:00:00 TS 14.1000 -76.4000 spur-merge 383 383 _____________O -1 14.1000 -76.4000 HU 75 7 254
1876268N12300 1876 20 NA CS NOT_NAMED 1876-10-01 09:00:00 TS 14.0000 -76.7575 spur-merge 393 393 _____________P -1 14.0000 -76.7575 HU 77 7 254
1876268N12300 1876 20 NA CS NOT_NAMED 1876-10-01 12:00:00 TS 13.9000 -77.1000 spur-merge 398 394 _____________O -1 13.9000 -77.1000 HU 80 7 251
1876268N12300 1876 20 NA CS NOT_NAMED 1876-10-01 15:00:00 TS 13.7924 -77.3925 spur-merge 406 403 _____________P -1 13.7924 -77.3925 HU 82 6 251
1876268N12300 1876 20 NA CS NOT_NAMED 1876-10-01 18:00:00 TS 13.7000 -77.7000 spur-merge 416 416 _____________O -1 13.7000 -77.7000 HU 85 7 258
1876268N12300 1876 20 NA CS NOT_NAMED 1876-10-01 21:00:00 TS 13.6425 -78.0925 spur-merge 437 437 _____________P -1 13.6425 -78.0925 HU 87 8 263
1876268N12300 1876 20 NA CS NOT_NAMED 1876-10-02 00:00:00 TS 13.6000 -78.5000 spur-merge 463 449 _____________O -1 13.6000 -78.5000 HU 90 7 262
1876268N12300 1876 20 NA CS NOT_NAMED 1876-10-02 03:00:00 TS 13.5424 -78.8500 spur-merge 448 441 _____________P -1 13.5525 -78.8650 HU 92 7 262
1876268N12300 1876 20 NA CS NOT_NAMED 1876-10-02 06:00:00 TS 13.5000 -79.2000 spur-merge 441 398 _____________O -1 13.5000 -79.2000 HU 95 7 267
1876268N12300 1876 20 NA CS NOT_NAMED 1876-10-02 09:00:00 TS 13.5000 -79.5999 spur-merge 398 ______________ -1 HU 8 270

IBTrACS Databaseについて

本データベースは、米国NOAAが公開する1842年以降の世界の熱帯低気圧のベストトラックデータアーカイブInternational Best Track Archive for Climate Stewardship (IBTrACS)を、ウェブで閲覧しやすい形式に変換したものです。

最終更新日:2021-10-21